createdAt,value
2023-01-09T00:00:44.420Z,5.34
2023-01-09T00:05:46.223Z,5.35
2023-01-09T00:10:49.532Z,5.38
2023-01-09T00:15:51.229Z,5.37
2023-01-09T00:20:52.910Z,5.41
2023-01-09T00:26:09.643Z,5.42
2023-01-09T00:31:12.392Z,5.42
2023-01-09T00:36:14.077Z,5.41
2023-01-09T00:41:19.722Z,5.40
2023-01-09T00:46:24.604Z,5.42
2023-01-09T00:51:27.861Z,5.36
2023-01-09T00:56:29.653Z,5.36
2023-01-09T01:01:31.410Z,5.34
2023-01-09T01:06:52.778Z,5.29
2023-01-09T01:11:54.379Z,5.28
2023-01-09T01:16:56.040Z,5.27
2023-01-09T01:21:57.764Z,5.25
2023-01-09T01:26:59.403Z,5.21
2023-01-09T01:32:01.248Z,5.20
2023-01-09T01:37:02.968Z,5.17
2023-01-09T01:42:05.581Z,5.20
2023-01-09T01:47:07.430Z,5.21
2023-01-09T01:52:09.092Z,5.21
2023-01-09T01:57:10.759Z,5.16
2023-01-09T02:02:12.532Z,5.16
2023-01-09T02:07:14.309Z,5.17
2023-01-09T02:12:25.927Z,5.16
2023-01-09T02:17:35.379Z,5.16
2023-01-09T02:22:43.711Z,5.15
2023-01-09T02:27:54.408Z,5.21
2023-01-09T02:33:00.630Z,5.32
2023-01-09T02:38:40.795Z,5.34
2023-01-09T02:43:42.482Z,5.41
2023-01-09T02:48:45.603Z,5.42
2023-01-09T02:53:50.520Z,5.43
2023-01-09T02:59:29.869Z,5.37
2023-01-09T03:05:05.540Z,5.26
2023-01-09T03:10:20.799Z,5.21
2023-01-09T03:15:26.482Z,5.14
2023-01-09T03:20:29.972Z,5.04
2023-01-09T03:25:32.073Z,4.98
2023-01-09T03:30:35.428Z,4.93
2023-01-09T03:35:37.587Z,4.85
2023-01-09T03:40:40.857Z,4.78
2023-01-09T03:45:42.915Z,4.73
2023-01-09T03:50:46.070Z,4.69
2023-01-09T03:55:50.082Z,4.67
2023-01-09T04:00:52.528Z,4.69
2023-01-09T04:05:54.582Z,4.65
2023-01-09T04:10:56.599Z,4.66
2023-01-09T04:15:58.344Z,4.69
2023-01-09T04:20:59.966Z,4.69
2023-01-09T04:26:01.574Z,4.69
2023-01-09T04:31:03.177Z,4.70
2023-01-09T04:36:05.722Z,4.71
2023-01-09T04:41:07.368Z,4.73
2023-01-09T04:46:09.014Z,4.72
2023-01-09T04:51:10.722Z,4.70
2023-01-09T04:56:12.499Z,4.70
2023-01-09T05:01:14.371Z,4.74
2023-01-09T05:06:16.144Z,4.71
2023-01-09T05:11:17.806Z,4.69
2023-01-09T05:16:19.956Z,4.71
2023-01-09T05:21:21.547Z,4.69
2023-01-09T05:26:24.221Z,4.68
2023-01-09T05:31:27.104Z,4.67
2023-01-09T05:36:29.361Z,4.69
2023-01-09T05:41:31.128Z,4.70
2023-01-09T05:46:32.858Z,4.66
2023-01-09T05:51:35.157Z,4.65
2023-01-09T05:56:36.959Z,4.62
2023-01-09T06:01:38.583Z,4.62
2023-01-09T06:06:40.984Z,4.63
2023-01-09T06:11:42.644Z,4.60
2023-01-09T06:16:44.293Z,4.68
2023-01-09T06:21:45.936Z,4.73
2023-01-09T06:26:47.547Z,4.73
2023-01-09T06:31:49.218Z,4.95
2023-01-09T06:36:50.849Z,5.00
2023-01-09T06:41:52.442Z,4.93
2023-01-09T06:46:54.049Z,4.95
2023-01-09T06:51:55.681Z,4.94
2023-01-09T06:56:57.313Z,5.05
2023-01-09T07:01:59.026Z,5.13
2023-01-09T07:07:00.735Z,5.20
2023-01-09T07:12:02.489Z,5.24
2023-01-09T07:17:04.099Z,5.30
2023-01-09T07:22:05.698Z,5.25
2023-01-09T07:27:07.360Z,5.19
2023-01-09T07:32:09.016Z,5.14
2023-01-09T07:37:10.754Z,5.11
2023-01-09T07:42:12.364Z,5.14
2023-01-09T07:47:14.015Z,5.16
2023-01-09T07:52:16.011Z,5.18
2023-01-09T07:57:17.648Z,5.20
2023-01-09T08:02:19.451Z,5.20
2023-01-09T08:07:21.130Z,5.21
2023-01-09T08:12:22.723Z,5.23
2023-01-09T08:17:26.440Z,5.26
2023-01-09T08:22:28.210Z,5.34
2023-01-09T08:27:29.972Z,5.41
2023-01-09T08:32:31.667Z,5.48
2023-01-09T08:37:33.700Z,5.55
2023-01-09T08:42:54.414Z,5.66
2023-01-09T08:47:56.565Z,5.82
2023-01-09T08:52:58.182Z,5.92
2023-01-09T08:57:59.830Z,5.97
2023-01-09T09:03:01.600Z,6.01
2023-01-09T09:08:04.146Z,6.09
2023-01-09T09:13:05.913Z,6.23
2023-01-09T09:18:07.725Z,6.44
2023-01-09T09:23:09.426Z,7.15
2023-01-09T09:28:11.028Z,7.65
2023-01-09T09:33:12.687Z,7.93
2023-01-09T09:38:15.156Z,8.07
2023-01-09T09:43:59.844Z,8.03
2023-01-09T09:49:25.592Z,8.03
2023-01-09T09:54:38.479Z,8.02
2023-01-09T09:59:40.111Z,8.09
2023-01-09T10:04:48.153Z,8.18
2023-01-09T10:09:59.871Z,8.22
2023-01-09T10:15:09.671Z,8.18
2023-01-09T10:20:39.445Z,8.21
2023-01-09T10:25:42.737Z,8.22
2023-01-09T10:30:48.298Z,8.21
2023-01-09T10:36:11.333Z,8.09
2023-01-09T10:41:29.378Z,7.91
2023-01-09T10:46:53.758Z,7.71
2023-01-09T10:52:15.946Z,7.48
2023-01-09T10:57:34.280Z,7.30
2023-01-09T11:02:36.113Z,7.35
2023-01-09T11:07:39.332Z,7.47
2023-01-09T11:12:41.228Z,7.59
2023-01-09T11:17:43.756Z,7.69
2023-01-09T11:22:50.432Z,7.87
2023-01-09T11:28:06.963Z,7.97
2023-01-09T11:33:21.264Z,8.02
2023-01-09T11:38:23.062Z,8.11
2023-01-09T11:43:35.140Z,8.11
2023-01-09T11:48:41.159Z,8.12
2023-01-09T11:53:56.158Z,8.20
2023-01-09T11:58:59.394Z,8.24
2023-01-09T12:04:25.274Z,8.32
2023-01-09T12:10:04.416Z,8.36
2023-01-09T12:15:24.908Z,8.41
2023-01-09T12:20:45.047Z,8.41
2023-01-09T12:26:18.368Z,8.35
2023-01-09T12:31:41.705Z,8.36
2023-01-09T12:37:25.218Z,8.33
2023-01-09T12:42:59.123Z,8.26
2023-01-09T12:48:09.936Z,8.09
2023-01-09T12:53:36.865Z,7.96
2023-01-09T12:58:44.970Z,7.92
2023-01-09T13:03:52.880Z,7.86
2023-01-09T13:09:22.872Z,7.90
2023-01-09T13:14:48.192Z,7.97
2023-01-09T13:19:50.806Z,8.00
2023-01-09T13:25:17.300Z,7.95
2023-01-09T13:30:36.660Z,7.92
2023-01-09T13:35:55.805Z,7.91
2023-01-09T13:41:25.133Z,7.88
2023-01-09T13:46:52.254Z,7.91
2023-01-09T13:52:00.107Z,7.93
2023-01-09T13:57:20.109Z,7.91
2023-01-09T14:02:33.754Z,7.94
2023-01-09T14:07:40.145Z,7.90
2023-01-09T14:12:42.167Z,7.89
2023-01-09T14:17:43.796Z,7.90
2023-01-09T14:22:56.058Z,7.90
2023-01-09T14:27:58.190Z,7.89
2023-01-09T14:33:02.815Z,7.89
2023-01-09T14:38:26.190Z,7.86
2023-01-09T14:44:03.907Z,7.86
2023-01-09T14:49:24.012Z,7.86
2023-01-09T14:54:32.998Z,7.87
2023-01-09T14:59:34.708Z,7.83
2023-01-09T15:04:38.797Z,7.80
2023-01-09T15:09:46.215Z,7.79
2023-01-09T15:14:51.720Z,7.72
2023-01-09T15:19:53.913Z,7.65
2023-01-09T15:24:55.917Z,7.60
2023-01-09T15:30:16.738Z,7.62
2023-01-09T15:35:19.876Z,7.48
2023-01-09T15:40:26.700Z,7.26
2023-01-09T15:45:39.367Z,6.99
2023-01-09T15:50:41.680Z,6.73
2023-01-09T15:55:43.566Z,6.52
2023-01-09T16:00:45.765Z,6.39
2023-01-09T16:05:57.929Z,6.58
2023-01-09T16:11:05.527Z,6.48
2023-01-09T16:16:07.720Z,6.31
2023-01-09T16:21:12.559Z,6.33
2023-01-09T16:26:21.120Z,6.21
2023-01-09T16:31:27.542Z,6.01
2023-01-09T16:36:29.264Z,5.87
2023-01-09T16:41:49.683Z,5.68
2023-01-09T16:46:51.337Z,5.57
2023-01-09T16:51:53.322Z,5.55
2023-01-09T16:56:55.108Z,5.48
2023-01-09T17:01:56.783Z,5.43
2023-01-09T17:06:58.434Z,5.42
2023-01-09T17:12:00.111Z,5.37
2023-01-09T17:17:02.797Z,5.39
2023-01-09T17:22:04.605Z,5.41
2023-01-09T17:27:24.698Z,5.46
2023-01-09T17:32:26.328Z,5.38
2023-01-09T17:37:28.030Z,5.30
2023-01-09T17:42:30.722Z,5.23
2023-01-09T17:47:33.905Z,5.20
2023-01-09T17:52:35.573Z,5.24
2023-01-09T17:57:37.310Z,5.30
2023-01-09T18:02:39.012Z,5.36
2023-01-09T18:07:40.706Z,5.50
2023-01-09T18:12:42.398Z,5.71
2023-01-09T18:17:44.199Z,5.83
2023-01-09T18:22:45.834Z,5.90
2023-01-09T18:27:47.452Z,5.92
2023-01-09T18:32:49.078Z,5.92
2023-01-09T18:37:50.700Z,5.96
2023-01-09T18:42:52.395Z,6.01
2023-01-09T18:47:53.993Z,6.03
2023-01-09T18:52:55.656Z,6.02
2023-01-09T18:57:57.367Z,6.00
2023-01-09T19:02:59.063Z,6.00
2023-01-09T19:08:00.723Z,5.99
2023-01-09T19:13:02.384Z,5.98
2023-01-09T19:18:04.021Z,5.98
2023-01-09T19:23:05.866Z,6.15
2023-01-09T19:28:07.575Z,6.24
2023-01-09T19:33:11.145Z,6.25
2023-01-09T19:38:12.794Z,6.22
2023-01-09T19:43:25.978Z,6.23
2023-01-09T19:48:28.947Z,6.25
2023-01-09T19:53:31.560Z,6.27
2023-01-09T19:58:33.250Z,6.31
2023-01-09T20:03:35.437Z,6.30
2023-01-09T20:08:37.154Z,6.36
2023-01-09T20:13:39.009Z,6.33
2023-01-09T20:18:40.970Z,6.35
2023-01-09T20:23:42.638Z,6.35
2023-01-09T20:28:44.840Z,6.35
2023-01-09T20:33:47.597Z,6.44
2023-01-09T20:38:49.260Z,6.45
2023-01-09T20:43:59.809Z,6.48
2023-01-09T20:49:06.450Z,6.56
2023-01-09T20:54:08.075Z,6.61
2023-01-09T20:59:20.076Z,6.62
2023-01-09T21:04:21.991Z,6.59
2023-01-09T21:09:25.301Z,6.65
2023-01-09T21:14:26.956Z,6.62
2023-01-09T21:19:28.566Z,6.64
2023-01-09T21:24:30.910Z,6.64
2023-01-09T21:29:32.550Z,6.68
2023-01-09T21:34:34.220Z,6.68
2023-01-09T21:39:36.297Z,6.69
2023-01-09T21:44:56.511Z,6.65
2023-01-09T21:49:58.202Z,6.63
2023-01-09T21:54:59.796Z,6.65
2023-01-09T22:00:01.601Z,6.63
2023-01-09T22:05:13.639Z,6.68
2023-01-09T22:10:15.717Z,6.62
2023-01-09T22:15:17.326Z,6.56
2023-01-09T22:20:19.027Z,6.39
2023-01-09T22:25:22.768Z,6.20
2023-01-09T22:30:24.594Z,6.05
2023-01-09T22:35:26.815Z,5.89
2023-01-09T22:40:28.544Z,5.78
2023-01-09T22:45:30.886Z,5.69
2023-01-09T22:50:32.542Z,5.75
2023-01-09T22:55:34.176Z,5.84
2023-01-09T23:00:35.822Z,5.86
2023-01-09T23:05:37.825Z,5.83
2023-01-09T23:10:39.585Z,5.77
2023-01-09T23:15:41.222Z,5.65
2023-01-09T23:20:50.551Z,5.61
2023-01-09T23:25:56.527Z,5.67
2023-01-09T23:30:58.267Z,5.69
2023-01-09T23:35:59.898Z,5.75
2023-01-09T23:41:01.629Z,5.76
2023-01-09T23:46:03.282Z,5.78
2023-01-09T23:51:07.865Z,5.80
2023-01-09T23:56:09.515Z,5.86
